sensor_id;sensor_type;location;lat;lon;timestamp;pressure;altitude;pressure_sealevel;temperature;humidity
11830;BME280;5972;42.134;24.718;2022-11-15T00:01:29;100410.16;;;8.02;100.00
11830;BME280;5972;42.134;24.718;2022-11-15T00:03:56;100431.13;;;8.27;100.00
11830;BME280;5972;42.134;24.718;2022-11-15T00:06:22;100418.88;;;8.21;100.00
11830;BME280;5972;42.134;24.718;2022-11-15T00:08:49;100427.25;;;8.20;100.00
11830;BME280;5972;42.134;24.718;2022-11-15T00:11:17;100401.97;;;8.07;100.00
11830;BME280;5972;42.134;24.718;2022-11-15T00:13:44;100417.41;;;7.79;100.00
11830;BME280;5972;42.134;24.718;2022-11-15T00:16:11;100430.94;;;8.02;100.00
11830;BME280;5972;42.134;24.718;2022-11-15T00:18:53;100426.41;;;8.11;100.00
11830;BME280;5972;42.134;24.718;2022-11-15T00:21:20;100425.78;;;8.14;100.00
11830;BME280;5972;42.134;24.718;2022-11-15T00:23:46;100434.66;;;8.14;100.00
11830;BME280;5972;42.134;24.718;2022-11-15T00:26:14;100419.22;;;8.06;100.00
11830;BME280;5972;42.134;24.718;2022-11-15T00:28:43;100433.91;;;8.00;100.00
11830;BME280;5972;42.134;24.718;2022-11-15T00:31:12;100418.25;;;8.02;100.00
11830;BME280;5972;42.134;24.718;2022-11-15T00:33:39;100423.56;;;7.93;100.00
11830;BME280;5972;42.134;24.718;2022-11-15T00:36:09;100422.41;;;8.08;100.00
11830;BME280;5972;42.134;24.718;2022-11-15T00:38:38;100418.44;;;8.06;100.00
11830;BME280;5972;42.134;24.718;2022-11-15T00:41:06;100421.50;;;8.13;100.00
11830;BME280;5972;42.134;24.718;2022-11-15T00:43:33;100419.13;;;8.11;100.00
11830;BME280;5972;42.134;24.718;2022-11-15T00:46:01;100415.25;;;8.04;100.00
11830;BME280;5972;42.134;24.718;2022-11-15T00:48:28;100416.78;;;7.96;100.00
11830;BME280;5972;42.134;24.718;2022-11-15T00:50:57;100413.97;;;8.01;100.00
11830;BME280;5972;42.134;24.718;2022-11-15T00:53:23;100412.06;;;8.02;100.00
11830;BME280;5972;42.134;24.718;2022-11-15T00:55:50;100411.38;;;7.96;100.00
11830;BME280;5972;42.134;24.718;2022-11-15T00:58:17;100415.28;;;7.90;100.00
11830;BME280;5972;42.134;24.718;2022-11-15T01:00:44;100411.69;;;7.94;100.00
11830;BME280;5972;42.134;24.718;2022-11-15T01:03:12;100413.16;;;8.01;100.00
11830;BME280;5972;42.134;24.718;2022-11-15T01:05:39;100412.38;;;8.00;100.00
11830;BME280;5972;42.134;24.718;2022-11-15T01:08:05;100411.03;;;8.11;100.00
11830;BME280;5972;42.134;24.718;2022-11-15T01:10:32;100404.97;;;8.06;100.00
11830;BME280;5972;42.134;24.718;2022-11-15T01:12:59;100407.13;;;8.17;100.00
11830;BME280;5972;42.134;24.718;2022-11-15T01:15:26;100406.19;;;7.86;100.00
11830;BME280;5972;42.134;24.718;2022-11-15T01:17:52;100406.06;;;8.05;100.00
11830;BME280;5972;42.134;24.718;2022-11-15T01:20:21;100403.13;;;8.15;100.00
11830;BME280;5972;42.134;24.718;2022-11-15T01:22:48;100400.28;;;8.20;100.00
11830;BME280;5972;42.134;24.718;2022-11-15T01:25:15;100399.81;;;8.18;100.00
11830;BME280;5972;42.134;24.718;2022-11-15T01:27:41;100392.28;;;8.28;100.00
11830;BME280;5972;42.134;24.718;2022-11-15T01:30:09;100383.41;;;8.28;100.00
11830;BME280;5972;42.134;24.718;2022-11-15T01:32:35;100388.41;;;8.34;100.00
11830;BME280;5972;42.134;24.718;2022-11-15T01:35:03;100401.31;;;8.46;100.00
11830;BME280;5972;42.134;24.718;2022-11-15T01:37:31;100397.81;;;8.46;100.00
11830;BME280;5972;42.134;24.718;2022-11-15T01:39:58;100393.16;;;8.38;100.00
11830;BME280;5972;42.134;24.718;2022-11-15T01:42:25;100394.78;;;8.47;100.00
11830;BME280;5972;42.134;24.718;2022-11-15T01:44:52;100392.72;;;8.44;100.00
11830;BME280;5972;42.134;24.718;2022-11-15T01:47:23;100385.50;;;8.31;100.00
11830;BME280;5972;42.134;24.718;2022-11-15T01:49:56;100380.59;;;8.33;100.00
11830;BME280;5972;42.134;24.718;2022-11-15T01:52:26;100385.69;;;8.34;100.00
11830;BME280;5972;42.134;24.718;2022-11-15T01:55:00;100380.94;;;8.18;100.00
11830;BME280;5972;42.134;24.718;2022-11-15T01:57:27;100383.69;;;8.26;100.00
11830;BME280;5972;42.134;24.718;2022-11-15T01:59:55;100382.66;;;8.36;100.00
11830;BME280;5972;42.134;24.718;2022-11-15T02:02:22;100385.38;;;8.36;100.00
11830;BME280;5972;42.134;24.718;2022-11-15T02:04:49;100382.78;;;8.53;100.00
11830;BME280;5972;42.134;24.718;2022-11-15T02:07:18;100390.56;;;8.55;100.00
11830;BME280;5972;42.134;24.718;2022-11-15T02:09:45;100394.91;;;8.64;100.00
11830;BME280;5972;42.134;24.718;2022-11-15T02:12:17;100389.22;;;8.66;100.00
11830;BME280;5972;42.134;24.718;2022-11-15T02:14:48;100388.63;;;8.77;100.00
11830;BME280;5972;42.134;24.718;2022-11-15T02:17:26;100389.00;;;8.85;100.00
11830;BME280;5972;42.134;24.718;2022-11-15T02:20:28;100377.66;;;8.43;100.00
11830;BME280;5972;42.134;24.718;2022-11-15T02:23:10;100377.09;;;8.55;100.00
11830;BME280;5972;42.134;24.718;2022-11-15T02:25:55;100377.25;;;8.58;100.00
11830;BME280;5972;42.134;24.718;2022-11-15T02:28:41;100377.47;;;8.70;100.00
11830;BME280;5972;42.134;24.718;2022-11-15T02:31:14;100380.03;;;8.75;100.00
11830;BME280;5972;42.134;24.718;2022-11-15T02:33:53;100381.06;;;8.88;100.00
11830;BME280;5972;42.134;24.718;2022-11-15T02:36:33;100375.81;;;8.92;100.00
11830;BME280;5972;42.134;24.718;2022-11-15T02:39:07;100378.41;;;8.97;100.00
11830;BME280;5972;42.134;24.718;2022-11-15T02:41:40;100376.97;;;8.99;100.00
11830;BME280;5972;42.134;24.718;2022-11-15T02:44:13;100345.31;;;8.83;100.00
11830;BME280;5972;42.134;24.718;2022-11-15T02:46:46;100376.53;;;9.06;100.00
11830;BME280;5972;42.134;24.718;2022-11-15T02:49:33;100370.16;;;9.02;100.00
11830;BME280;5972;42.134;24.718;2022-11-15T02:52:01;100365.66;;;8.89;100.00
11830;BME280;5972;42.134;24.718;2022-11-15T02:54:30;100367.13;;;9.03;100.00
11830;BME280;5972;42.134;24.718;2022-11-15T02:57:01;100363.19;;;9.01;100.00
11830;BME280;5972;42.134;24.718;2022-11-15T02:59:56;100366.66;;;9.01;100.00
11830;BME280;5972;42.134;24.718;2022-11-15T03:02:40;100366.97;;;9.00;100.00
11830;BME280;5972;42.134;24.718;2022-11-15T03:05:17;100365.22;;;8.95;100.00
11830;BME280;5972;42.134;24.718;2022-11-15T03:07:53;100368.81;;;8.82;100.00
11830;BME280;5972;42.134;24.718;2022-11-15T03:10:26;100375.06;;;8.91;100.00
11830;BME280;5972;42.134;24.718;2022-11-15T03:13:02;100359.22;;;8.67;100.00
11830;BME280;5972;42.134;24.718;2022-11-15T03:15:37;100363.25;;;8.79;100.00
11830;BME280;5972;42.134;24.718;2022-11-15T03:18:10;100368.81;;;8.82;100.00
11830;BME280;5972;42.134;24.718;2022-11-15T03:20:39;100371.50;;;8.82;100.00
11830;BME280;5972;42.134;24.718;2022-11-15T03:23:08;100356.31;;;8.55;100.00
11830;BME280;5972;42.134;24.718;2022-11-15T03:25:38;100352.38;;;8.61;100.00
11830;BME280;5972;42.134;24.718;2022-11-15T03:28:10;100325.16;;;8.49;100.00
11830;BME280;5972;42.134;24.718;2022-11-15T03:30:39;100355.16;;;8.87;100.00
11830;BME280;5972;42.134;24.718;2022-11-15T03:33:09;100360.44;;;8.92;100.00
11830;BME280;5972;42.134;24.718;2022-11-15T03:35:39;100354.38;;;8.87;100.00
11830;BME280;5972;42.134;24.718;2022-11-15T03:38:19;100351.00;;;8.81;100.00
11830;BME280;5972;42.134;24.718;2022-11-15T03:40:51;100342.41;;;8.70;100.00
11830;BME280;5972;42.134;24.718;2022-11-15T03:43:26;100347.53;;;8.81;100.00
11830;BME280;5972;42.134;24.718;2022-11-15T03:45:59;100304.56;;;8.53;100.00
11830;BME280;5972;42.134;24.718;2022-11-15T03:48:33;100342.47;;;8.79;100.00
11830;BME280;5972;42.134;24.718;2022-11-15T03:51:01;100324.56;;;8.52;100.00
11830;BME280;5972;42.134;24.718;2022-11-15T03:53:29;100338.72;;;8.58;100.00
11830;BME280;5972;42.134;24.718;2022-11-15T03:55:57;100341.59;;;8.70;100.00
11830;BME280;5972;42.134;24.718;2022-11-15T03:58:24;100336.88;;;8.75;100.00
11830;BME280;5972;42.134;24.718;2022-11-15T04:00:50;100325.41;;;8.70;100.00
11830;BME280;5972;42.134;24.718;2022-11-15T04:03:17;100323.66;;;8.65;100.00
11830;BME280;5972;42.134;24.718;2022-11-15T04:05:45;100332.69;;;8.61;100.00
11830;BME280;5972;42.134;24.718;2022-11-15T04:08:12;100330.78;;;8.61;100.00
11830;BME280;5972;42.134;24.718;2022-11-15T04:10:39;100322.41;;;8.71;100.00
11830;BME280;5972;42.134;24.718;2022-11-15T04:13:05;100316.22;;;8.71;100.00
11830;BME280;5972;42.134;24.718;2022-11-15T04:15:32;100317.06;;;8.80;100.00
11830;BME280;5972;42.134;24.718;2022-11-15T04:17:59;100322.13;;;8.82;100.00
11830;BME280;5972;42.134;24.718;2022-11-15T04:20:27;100315.91;;;8.72;100.00
11830;BME280;5972;42.134;24.718;2022-11-15T04:23:15;100312.50;;;8.58;100.00
11830;BME280;5972;42.134;24.718;2022-11-15T04:26:01;100307.13;;;8.58;100.00
11830;BME280;5972;42.134;24.718;2022-11-15T04:28:28;100310.44;;;8.55;100.00
11830;BME280;5972;42.134;24.718;2022-11-15T04:30:55;100312.97;;;8.52;100.00
11830;BME280;5972;42.134;24.718;2022-11-15T04:33:22;100312.13;;;8.43;100.00
11830;BME280;5972;42.134;24.718;2022-11-15T04:35:49;100304.81;;;8.34;100.00
11830;BME280;5972;42.134;24.718;2022-11-15T04:38:31;100312.69;;;8.31;100.00
11830;BME280;5972;42.134;24.718;2022-11-15T04:40:58;100315.16;;;8.19;100.00
11830;BME280;5972;42.134;24.718;2022-11-15T04:43:24;100311.69;;;8.27;100.00
11830;BME280;5972;42.134;24.718;2022-11-15T04:45:51;100314.91;;;8.29;100.00
11830;BME280;5972;42.134;24.718;2022-11-15T04:48:18;100302.34;;;8.24;100.00
11830;BME280;5972;42.134;24.718;2022-11-15T04:50:47;100313.06;;;8.16;100.00
11830;BME280;5972;42.134;24.718;2022-11-15T04:53:14;100308.19;;;7.96;100.00
11830;BME280;5972;42.134;24.718;2022-11-15T04:55:45;100306.84;;;8.07;100.00
11830;BME280;5972;42.134;24.718;2022-11-15T04:58:12;100305.72;;;8.08;100.00
11830;BME280;5972;42.134;24.718;2022-11-15T05:00:38;100305.13;;;8.19;100.00
11830;BME280;5972;42.134;24.718;2022-11-15T05:03:06;100306.88;;;8.15;100.00
11830;BME280;5972;42.134;24.718;2022-11-15T05:05:50;100303.72;;;8.13;100.00
11830;BME280;5972;42.134;24.718;2022-11-15T05:08:17;100309.75;;;8.19;100.00
11830;BME280;5972;42.134;24.718;2022-11-15T05:10:45;100305.13;;;8.19;100.00
11830;BME280;5972;42.134;24.718;2022-11-15T05:13:12;100309.13;;;8.22;100.00
11830;BME280;5972;42.134;24.718;2022-11-15T05:15:38;100310.09;;;8.26;100.00
11830;BME280;5972;42.134;24.718;2022-11-15T05:18:05;100304.31;;;8.32;100.00
11830;BME280;5972;42.134;24.718;2022-11-15T05:20:32;100311.97;;;8.39;100.00
11830;BME280;5972;42.134;24.718;2022-11-15T05:22:59;100308.97;;;8.41;100.00
11830;BME280;5972;42.134;24.718;2022-11-15T05:25:26;100300.44;;;8.03;100.00
11830;BME280;5972;42.134;24.718;2022-11-15T05:27:54;100309.00;;;8.27;100.00
11830;BME280;5972;42.134;24.718;2022-11-15T05:30:21;100311.66;;;8.41;100.00
11830;BME280;5972;42.134;24.718;2022-11-15T05:32:48;100309.63;;;8.24;100.00
11830;BME280;5972;42.134;24.718;2022-11-15T05:35:20;100309.25;;;8.39;100.00
11830;BME280;5972;42.134;24.718;2022-11-15T05:37:48;100280.94;;;8.28;100.00
11830;BME280;5972;42.134;24.718;2022-11-15T05:40:15;100314.53;;;8.44;100.00
11830;BME280;5972;42.134;24.718;2022-11-15T05:42:42;100311.75;;;8.58;100.00
11830;BME280;5972;42.134;24.718;2022-11-15T05:45:11;100313.31;;;8.59;100.00
11830;BME280;5972;42.134;24.718;2022-11-15T05:47:38;100318.63;;;8.72;100.00
11830;BME280;5972;42.134;24.718;2022-11-15T05:50:06;100320.88;;;8.88;100.00
11830;BME280;5972;42.134;24.718;2022-11-15T05:52:34;100328.97;;;8.88;100.00
11830;BME280;5972;42.134;24.718;2022-11-15T05:55:03;100329.69;;;9.02;100.00
11830;BME280;5972;42.134;24.718;2022-11-15T05:57:31;100329.34;;;9.03;100.00
11830;BME280;5972;42.134;24.718;2022-11-15T05:59:58;100339.38;;;9.11;100.00
11830;BME280;5972;42.134;24.718;2022-11-15T06:02:26;100330.19;;;9.12;100.00
11830;BME280;5972;42.134;24.718;2022-11-15T06:04:53;100337.97;;;9.23;100.00
11830;BME280;5972;42.134;24.718;2022-11-15T06:07:20;100338.47;;;9.25;100.00
11830;BME280;5972;42.134;24.718;2022-11-15T06:09:46;100348.31;;;9.29;100.00
11830;BME280;5972;42.134;24.718;2022-11-15T06:12:13;100352.63;;;9.39;100.00
11830;BME280;5972;42.134;24.718;2022-11-15T06:14:40;100319.88;;;9.32;100.00
11830;BME280;5972;42.134;24.718;2022-11-15T06:17:07;100350.13;;;9.68;100.00
11830;BME280;5972;42.134;24.718;2022-11-15T06:19:35;100357.44;;;9.85;100.00
11830;BME280;5972;42.134;24.718;2022-11-15T06:22:02;100354.72;;;9.93;100.00
11830;BME280;5972;42.134;24.718;2022-11-15T06:24:28;100355.53;;;9.94;100.00
11830;BME280;5972;42.134;24.718;2022-11-15T06:26:55;100360.13;;;9.93;100.00
11830;BME280;5972;42.134;24.718;2022-11-15T06:29:22;100347.88;;;9.70;100.00
11830;BME280;5972;42.134;24.718;2022-11-15T06:31:49;100359.66;;;10.26;100.00
11830;BME280;5972;42.134;24.718;2022-11-15T06:34:16;100352.66;;;10.33;100.00
11830;BME280;5972;42.134;24.718;2022-11-15T06:36:44;100362.50;;;10.38;100.00
11830;BME280;5972;42.134;24.718;2022-11-15T06:39:11;100358.22;;;9.77;100.00
11830;BME280;5972;42.134;24.718;2022-11-15T06:41:38;100357.41;;;9.59;100.00
11830;BME280;5972;42.134;24.718;2022-11-15T06:44:04;100355.31;;;9.39;100.00
11830;BME280;5972;42.134;24.718;2022-11-15T06:46:31;100351.19;;;9.33;100.00
11830;BME280;5972;42.134;24.718;2022-11-15T06:48:58;100354.75;;;9.68;100.00
11830;BME280;5972;42.134;24.718;2022-11-15T06:51:25;100340.72;;;9.66;100.00
11830;BME280;5972;42.134;24.718;2022-11-15T06:53:53;100355.38;;;10.16;100.00
11830;BME280;5972;42.134;24.718;2022-11-15T06:56:20;100368.66;;;10.56;100.00
11830;BME280;5972;42.134;24.718;2022-11-15T06:58:47;100364.75;;;10.91;100.00
11830;BME280;5972;42.134;24.718;2022-11-15T07:01:14;100361.16;;;11.08;100.00
11830;BME280;5972;42.134;24.718;2022-11-15T07:03:42;100365.09;;;11.19;100.00
11830;BME280;5972;42.134;24.718;2022-11-15T07:06:09;100368.25;;;11.21;100.00
11830;BME280;5972;42.134;24.718;2022-11-15T07:08:36;100356.66;;;11.41;100.00
11830;BME280;5972;42.134;24.718;2022-11-15T07:11:06;100362.31;;;11.78;100.00
11830;BME280;5972;42.134;24.718;2022-11-15T07:13:34;100346.13;;;11.90;100.00
11830;BME280;5972;42.134;24.718;2022-11-15T07:16:03;100332.31;;;12.61;100.00
11830;BME280;5972;42.134;24.718;2022-11-15T07:18:30;100357.34;;;13.51;94.56
11830;BME280;5972;42.134;24.718;2022-11-15T07:21:00;100353.78;;;14.43;86.65
11830;BME280;5972;42.134;24.718;2022-11-15T07:23:27;100331.31;;;14.93;78.27
11830;BME280;5972;42.134;24.718;2022-11-15T07:25:56;100327.66;;;15.20;70.75
11830;BME280;5972;42.134;24.718;2022-11-15T07:28:25;100322.06;;;15.48;67.76
11830;BME280;5972;42.134;24.718;2022-11-15T07:30:52;100320.03;;;15.45;67.11
11830;BME280;5972;42.134;24.718;2022-11-15T07:33:18;100324.03;;;15.67;67.18
11830;BME280;5972;42.134;24.718;2022-11-15T07:35:45;100305.59;;;16.63;61.93
11830;BME280;5972;42.134;24.718;2022-11-15T07:38:14;100324.19;;;17.56;56.49
11830;BME280;5972;42.134;24.718;2022-11-15T07:40:44;100323.13;;;17.94;52.43
11830;BME280;5972;42.134;24.718;2022-11-15T07:43:11;100318.44;;;17.95;52.09
11830;BME280;5972;42.134;24.718;2022-11-15T07:45:42;100314.13;;;18.31;49.32
11830;BME280;5972;42.134;24.718;2022-11-15T07:48:12;100313.88;;;17.46;52.95
11830;BME280;5972;42.134;24.718;2022-11-15T07:50:40;100311.28;;;16.78;58.02
11830;BME280;5972;42.134;24.718;2022-11-15T07:53:13;100318.34;;;18.21;52.76
11830;BME280;5972;42.134;24.718;2022-11-15T07:55:41;100313.78;;;18.36;50.66
11830;BME280;5972;42.134;24.718;2022-11-15T07:58:09;100284.81;;;18.75;49.44
11830;BME280;5972;42.134;24.718;2022-11-15T08:00:36;100320.75;;;19.14;47.66
11830;BME280;5972;42.134;24.718;2022-11-15T08:03:06;100305.31;;;19.50;47.29
11830;BME280;5972;42.134;24.718;2022-11-15T08:05:34;100314.63;;;18.03;49.96
11830;BME280;5972;42.134;24.718;2022-11-15T08:08:02;100313.56;;;17.21;54.80
11830;BME280;5972;42.134;24.718;2022-11-15T08:10:29;100291.22;;;18.49;50.33
11830;BME280;5972;42.134;24.718;2022-11-15T08:12:57;100297.28;;;19.20;47.65
11830;BME280;5972;42.134;24.718;2022-11-15T08:15:25;100289.66;;;19.58;45.50
11830;BME280;5972;42.134;24.718;2022-11-15T08:17:54;100307.28;;;19.49;46.20
11830;BME280;5972;42.134;24.718;2022-11-15T08:20:22;100297.91;;;19.61;44.68
11830;BME280;5972;42.134;24.718;2022-11-15T08:22:49;100296.00;;;18.56;46.53
11830;BME280;5972;42.134;24.718;2022-11-15T08:25:16;100290.16;;;19.88;44.36
11830;BME280;5972;42.134;24.718;2022-11-15T08:27:43;100290.31;;;20.59;43.09
11830;BME280;5972;42.134;24.718;2022-11-15T08:30:11;100285.97;;;21.04;41.71
11830;BME280;5972;42.134;24.718;2022-11-15T08:32:39;100293.81;;;20.31;42.78
11830;BME280;5972;42.134;24.718;2022-11-15T08:35:06;100283.47;;;21.63;40.96
11830;BME280;5972;42.134;24.718;2022-11-15T08:37:35;100290.06;;;21.90;40.10
11830;BME280;5972;42.134;24.718;2022-11-15T08:40:02;100279.25;;;22.20;39.15
11830;BME280;5972;42.134;24.718;2022-11-15T08:42:29;100294.50;;;21.66;40.37
11830;BME280;5972;42.134;24.718;2022-11-15T08:44:56;100276.22;;;22.04;39.41
11830;BME280;5972;42.134;24.718;2022-11-15T08:47:22;100276.47;;;22.24;39.56
11830;BME280;5972;42.134;24.718;2022-11-15T08:49:49;100269.88;;;22.11;39.32
11830;BME280;5972;42.134;24.718;2022-11-15T08:52:16;100289.06;;;22.25;39.67
11830;BME280;5972;42.134;24.718;2022-11-15T08:54:44;100278.97;;;22.04;39.44
11830;BME280;5972;42.134;24.718;2022-11-15T08:57:11;100270.63;;;21.24;41.26
11830;BME280;5972;42.134;24.718;2022-11-15T08:59:38;100278.69;;;21.74;40.92
11830;BME280;5972;42.134;24.718;2022-11-15T09:02:05;100261.75;;;21.82;40.24
11830;BME280;5972;42.134;24.718;2022-11-15T09:04:32;100260.44;;;22.12;40.23
11830;BME280;5972;42.134;24.718;2022-11-15T09:06:59;100260.59;;;22.46;39.68
11830;BME280;5972;42.134;24.718;2022-11-15T09:09:26;100244.78;;;22.46;39.93
11830;BME280;5972;42.134;24.718;2022-11-15T09:11:54;100246.78;;;22.94;39.29
11830;BME280;5972;42.134;24.718;2022-11-15T09:14:21;100241.13;;;21.25;41.10
11830;BME280;5972;42.134;24.718;2022-11-15T09:16:47;100232.03;;;21.45;41.40
11830;BME280;5972;42.134;24.718;2022-11-15T09:19:14;100224.13;;;22.72;39.93
11830;BME280;5972;42.134;24.718;2022-11-15T09:21:41;100223.00;;;22.62;39.51
11830;BME280;5972;42.134;24.718;2022-11-15T09:24:08;100213.91;;;22.65;39.79
11830;BME280;5972;42.134;24.718;2022-11-15T09:26:34;100215.03;;;23.46;38.94
11830;BME280;5972;42.134;24.718;2022-11-15T09:29:03;100215.09;;;24.00;37.74
11830;BME280;5972;42.134;24.718;2022-11-15T09:31:30;100211.13;;;24.28;36.80
11830;BME280;5972;42.134;24.718;2022-11-15T09:33:57;100205.41;;;20.93;42.61
11830;BME280;5972;42.134;24.718;2022-11-15T09:36:24;100169.22;;;21.85;41.36
11830;BME280;5972;42.134;24.718;2022-11-15T09:38:50;100195.53;;;22.48;40.51
11830;BME280;5972;42.134;24.718;2022-11-15T09:41:33;100191.50;;;22.15;40.86
11830;BME280;5972;42.134;24.718;2022-11-15T09:44:23;100187.56;;;22.57;40.92
11830;BME280;5972;42.134;24.718;2022-11-15T09:49:28;100182.59;;;21.86;41.80
11830;BME280;5972;42.134;24.718;2022-11-15T09:51:56;100187.41;;;21.79;42.53
11830;BME280;5972;42.134;24.718;2022-11-15T09:54:27;100180.75;;;21.69;42.94
11830;BME280;5972;42.134;24.718;2022-11-15T09:56:56;100180.81;;;22.21;41.87
11830;BME280;5972;42.134;24.718;2022-11-15T09:59:48;100174.56;;;22.17;41.55
11830;BME280;5972;42.134;24.718;2022-11-15T10:02:33;100134.09;;;22.03;40.92
11830;BME280;5972;42.134;24.718;2022-11-15T10:05:10;100161.03;;;22.33;40.65
11830;BME280;5972;42.134;24.718;2022-11-15T10:07:46;100157.03;;;22.37;40.36
11830;BME280;5972;42.134;24.718;2022-11-15T10:10:22;100147.88;;;22.48;40.65
11830;BME280;5972;42.134;24.718;2022-11-15T10:12:52;100148.34;;;21.87;40.76
11830;BME280;5972;42.134;24.718;2022-11-15T10:15:21;100136.28;;;20.84;43.44
11830;BME280;5972;42.134;24.718;2022-11-15T10:18:06;100138.72;;;20.50;43.99
11830;BME280;5972;42.134;24.718;2022-11-15T10:20:42;100101.06;;;20.11;44.72
11830;BME280;5972;42.134;24.718;2022-11-15T10:23:13;100134.41;;;20.17;46.02
11830;BME280;5972;42.134;24.718;2022-11-15T10:25:40;100122.63;;;20.06;46.32
11830;BME280;5972;42.134;24.718;2022-11-15T10:28:13;100108.13;;;19.98;46.54
11830;BME280;5972;42.134;24.718;2022-11-15T10:30:44;100131.91;;;19.27;48.91
11830;BME280;5972;42.134;24.718;2022-11-15T10:33:24;100116.63;;;19.40;48.99
11830;BME280;5972;42.134;24.718;2022-11-15T10:36:16;100112.81;;;19.66;48.29
11830;BME280;5972;42.134;24.718;2022-11-15T10:38:53;100111.38;;;18.92;50.40
11830;BME280;5972;42.134;24.718;2022-11-15T10:41:23;100102.81;;;19.11;50.48
11830;BME280;5972;42.134;24.718;2022-11-15T10:44:10;100100.25;;;19.61;50.36
11830;BME280;5972;42.134;24.718;2022-11-15T10:46:40;100084.97;;;19.92;49.04
11830;BME280;5972;42.134;24.718;2022-11-15T10:49:13;100092.03;;;20.32;47.74
11830;BME280;5972;42.134;24.718;2022-11-15T10:51:43;100081.00;;;20.25;46.98
11830;BME280;5972;42.134;24.718;2022-11-15T10:54:12;100080.44;;;18.92;50.86
11830;BME280;5972;42.134;24.718;2022-11-15T10:56:42;100081.69;;;19.23;50.75
11830;BME280;5972;42.134;24.718;2022-11-15T10:59:16;100079.09;;;19.72;49.37
11830;BME280;5972;42.134;24.718;2022-11-15T11:01:48;100085.28;;;19.44;50.25
11830;BME280;5972;42.134;24.718;2022-11-15T11:04:15;100069.97;;;19.26;50.71
11830;BME280;5972;42.134;24.718;2022-11-15T11:06:49;100069.16;;;19.29;50.57
11830;BME280;5972;42.134;24.718;2022-11-15T11:09:30;100064.09;;;19.27;51.09
11830;BME280;5972;42.134;24.718;2022-11-15T11:11:58;100055.69;;;18.74;52.12
11830;BME280;5972;42.134;24.718;2022-11-15T11:14:26;100047.53;;;18.19;55.42
11830;BME280;5972;42.134;24.718;2022-11-15T11:17:02;100047.88;;;18.11;56.47
11830;BME280;5972;42.134;24.718;2022-11-15T11:19:41;100026.88;;;18.33;55.17
11830;BME280;5972;42.134;24.718;2022-11-15T11:22:17;100046.06;;;18.33;55.73
11830;BME280;5972;42.134;24.718;2022-11-15T11:24:53;100032.81;;;17.83;57.85
11830;BME280;5972;42.134;24.718;2022-11-15T11:27:31;100034.50;;;17.14;61.96
11830;BME280;5972;42.134;24.718;2022-11-15T11:30:10;100032.72;;;16.92;64.92
11830;BME280;5972;42.134;24.718;2022-11-15T11:33:07;100012.81;;;16.61;68.53
11830;BME280;5972;42.134;24.718;2022-11-15T11:35:43;100020.53;;;16.86;67.53
11830;BME280;5972;42.134;24.718;2022-11-15T11:38:24;100012.97;;;17.09;66.82
11830;BME280;5972;42.134;24.718;2022-11-15T11:41:04;100009.72;;;16.96;64.78
11830;BME280;5972;42.134;24.718;2022-11-15T11:43:39;100001.50;;;16.96;65.41
11830;BME280;5972;42.134;24.718;2022-11-15T11:46:32;100002.41;;;17.08;65.94
11830;BME280;5972;42.134;24.718;2022-11-15T11:49:09;99996.19;;;17.11;63.43
11830;BME280;5972;42.134;24.718;2022-11-15T11:51:39;99991.56;;;16.48;67.17
11830;BME280;5972;42.134;24.718;2022-11-15T11:54:12;99965.47;;;15.94;70.91
11830;BME280;5972;42.134;24.718;2022-11-15T11:56:41;99989.97;;;16.17;71.84
11830;BME280;5972;42.134;24.718;2022-11-15T11:59:16;99995.34;;;16.10;72.25
11830;BME280;5972;42.134;24.718;2022-11-15T12:01:45;99976.88;;;15.05;81.47
11830;BME280;5972;42.134;24.718;2022-11-15T12:04:16;99981.63;;;15.08;84.71
11830;BME280;5972;42.134;24.718;2022-11-15T12:06:49;99981.50;;;15.47;81.28
11830;BME280;5972;42.134;24.718;2022-11-15T12:09:21;99972.78;;;15.15;84.15
11830;BME280;5972;42.134;24.718;2022-11-15T12:11:55;99980.84;;;15.30;83.74
11830;BME280;5972;42.134;24.718;2022-11-15T12:14:29;99963.13;;;15.44;81.47
11830;BME280;5972;42.134;24.718;2022-11-15T12:16:58;99964.06;;;15.77;78.70
11830;BME280;5972;42.134;24.718;2022-11-15T12:19:28;99960.66;;;16.10;75.66
11830;BME280;5972;42.134;24.718;2022-11-15T12:22:00;99955.28;;;16.17;74.17
11830;BME280;5972;42.134;24.718;2022-11-15T12:24:29;99933.72;;;16.09;73.31
11830;BME280;5972;42.134;24.718;2022-11-15T12:27:03;99944.28;;;16.10;74.38
11830;BME280;5972;42.134;24.718;2022-11-15T12:29:35;99942.16;;;16.00;76.66
11830;BME280;5972;42.134;24.718;2022-11-15T12:32:03;99941.28;;;15.66;77.58
11830;BME280;5972;42.134;24.718;2022-11-15T12:34:42;99906.63;;;15.18;80.03
11830;BME280;5972;42.134;24.718;2022-11-15T12:37:41;99939.38;;;15.21;81.48
11830;BME280;5972;42.134;24.718;2022-11-15T12:40:32;99935.91;;;15.21;84.44
11830;BME280;5972;42.134;24.718;2022-11-15T12:43:05;99937.25;;;15.57;80.84
11830;BME280;5972;42.134;24.718;2022-11-15T12:45:38;99939.78;;;15.69;78.70
11830;BME280;5972;42.134;24.718;2022-11-15T12:51:13;99909.31;;;15.40;81.71
11830;BME280;5972;42.134;24.718;2022-11-15T12:53:40;99921.66;;;15.31;83.05
11830;BME280;5972;42.134;24.718;2022-11-15T12:56:22;99917.69;;;15.28;83.69
11830;BME280;5972;42.134;24.718;2022-11-15T12:58:53;99894.94;;;14.94;87.24
11830;BME280;5972;42.134;24.718;2022-11-15T13:01:57;99900.50;;;15.02;87.83
11830;BME280;5972;42.134;24.718;2022-11-15T13:04:27;99905.72;;;15.10;87.34
11830;BME280;5972;42.134;24.718;2022-11-15T13:06:57;99886.06;;;14.97;86.97
11830;BME280;5972;42.134;24.718;2022-11-15T13:12:50;99897.97;;;15.12;87.04
11830;BME280;5972;42.134;24.718;2022-11-15T13:15:45;99895.41;;;15.00;89.13
11830;BME280;5972;42.134;24.718;2022-11-15T13:21:16;99882.19;;;14.76;93.00